sensor_id;sensor_type;location;lat;lon;timestamp;P1;durP1;ratioP1;P2;durP2;ratioP2
27333;SDS011;14817;57.104;-2.094;2022-12-29T00:00:07;7.97;;;2.45;;
27333;SDS011;14817;57.104;-2.094;2022-12-29T00:02:39;8.15;;;2.40;;
27333;SDS011;14817;57.104;-2.094;2022-12-29T00:05:07;6.38;;;2.55;;
27333;SDS011;14817;57.104;-2.094;2022-12-29T00:07:34;4.82;;;2.17;;
27333;SDS011;14817;57.104;-2.094;2022-12-29T00:10:01;3.47;;;1.45;;
27333;SDS011;14817;57.104;-2.094;2022-12-29T00:12:28;3.58;;;1.60;;
27333;SDS011;14817;57.104;-2.094;2022-12-29T00:15:15;3.65;;;1.70;;
27333;SDS011;14817;57.104;-2.094;2022-12-29T00:18:01;4.05;;;1.73;;
27333;SDS011;14817;57.104;-2.094;2022-12-29T00:20:27;3.42;;;1.88;;
27333;SDS011;14817;57.104;-2.094;2022-12-29T00:23:13;2.63;;;1.65;;
27333;SDS011;14817;57.104;-2.094;2022-12-29T00:26:02;3.63;;;1.92;;
27333;SDS011;14817;57.104;-2.094;2022-12-29T00:28:49;2.50;;;1.50;;
27333;SDS011;14817;57.104;-2.094;2022-12-29T00:31:35;3.75;;;1.83;;
27333;SDS011;14817;57.104;-2.094;2022-12-29T00:34:20;2.85;;;1.80;;
27333;SDS011;14817;57.104;-2.094;2022-12-29T00:37:05;2.45;;;0.90;;
27333;SDS011;14817;57.104;-2.094;2022-12-29T00:39:32;3.47;;;1.42;;
27333;SDS011;14817;57.104;-2.094;2022-12-29T00:42:18;3.08;;;1.42;;
27333;SDS011;14817;57.104;-2.094;2022-12-29T00:45:03;1.98;;;1.30;;
27333;SDS011;14817;57.104;-2.094;2022-12-29T00:47:30;1.85;;;0.80;;
27333;SDS011;14817;57.104;-2.094;2022-12-29T00:49:57;2.50;;;0.80;;
27333;SDS011;14817;57.104;-2.094;2022-12-29T00:52:24;2.05;;;0.95;;
27333;SDS011;14817;57.104;-2.094;2022-12-29T00:54:50;1.25;;;0.80;;
27333;SDS011;14817;57.104;-2.094;2022-12-29T00:57:17;1.63;;;0.90;;
27333;SDS011;14817;57.104;-2.094;2022-12-29T00:59:44;1.50;;;0.80;;
27333;SDS011;14817;57.104;-2.094;2022-12-29T01:02:11;2.00;;;1.00;;
27333;SDS011;14817;57.104;-2.094;2022-12-29T01:04:38;2.50;;;1.27;;
27333;SDS011;14817;57.104;-2.094;2022-12-29T01:07:05;2.25;;;0.98;;
27333;SDS011;14817;57.104;-2.094;2022-12-29T01:09:32;2.22;;;0.68;;
27333;SDS011;14817;57.104;-2.094;2022-12-29T01:12:17;2.13;;;1.15;;
27333;SDS011;14817;57.104;-2.094;2022-12-29T01:15:05;2.90;;;0.80;;
27333;SDS011;14817;57.104;-2.094;2022-12-29T01:17:33;1.27;;;0.90;;
27333;SDS011;14817;57.104;-2.094;2022-12-29T01:20:01;2.45;;;1.15;;
27333;SDS011;14817;57.104;-2.094;2022-12-29T01:22:29;1.70;;;1.15;;
27333;SDS011;14817;57.104;-2.094;2022-12-29T01:24:55;1.88;;;1.10;;
27333;SDS011;14817;57.104;-2.094;2022-12-29T01:27:22;2.25;;;1.65;;
27333;SDS011;14817;57.104;-2.094;2022-12-29T01:29:49;2.95;;;1.60;;
27333;SDS011;14817;57.104;-2.094;2022-12-29T01:32:16;2.13;;;1.40;;
27333;SDS011;14817;57.104;-2.094;2022-12-29T01:34:43;2.22;;;1.55;;
27333;SDS011;14817;57.104;-2.094;2022-12-29T01:37:10;3.67;;;1.30;;
27333;SDS011;14817;57.104;-2.094;2022-12-29T01:39:37;2.58;;;1.30;;
27333;SDS011;14817;57.104;-2.094;2022-12-29T01:42:04;3.40;;;1.10;;
27333;SDS011;14817;57.104;-2.094;2022-12-29T01:49:57;2.03;;;1.00;;
27333;SDS011;14817;57.104;-2.094;2022-12-29T01:52:28;1.17;;;0.93;;
27333;SDS011;14817;57.104;-2.094;2022-12-29T01:55:00;1.67;;;0.93;;
27333;SDS011;14817;57.104;-2.094;2022-12-29T01:57:31;1.65;;;0.90;;
27333;SDS011;14817;57.104;-2.094;2022-12-29T02:00:10;3.05;;;0.95;;
27333;SDS011;14817;57.104;-2.094;2022-12-29T02:02:41;1.40;;;0.82;;
27333;SDS011;14817;57.104;-2.094;2022-12-29T02:05:14;0.77;;;0.63;;
27333;SDS011;14817;57.104;-2.094;2022-12-29T02:07:46;1.63;;;0.55;;
27333;SDS011;14817;57.104;-2.094;2022-12-29T02:10:16;3.83;;;0.80;;
27333;SDS011;14817;57.104;-2.094;2022-12-29T02:12:46;0.77;;;0.47;;
27333;SDS011;14817;57.104;-2.094;2022-12-29T02:15:13;0.85;;;0.50;;
27333;SDS011;14817;57.104;-2.094;2022-12-29T02:17:57;1.95;;;0.70;;
27333;SDS011;14817;57.104;-2.094;2022-12-29T02:26:12;0.77;;;0.57;;
27333;SDS011;14817;57.104;-2.094;2022-12-29T02:29:05;0.30;;;0.20;;
27333;SDS011;14817;57.104;-2.094;2022-12-29T02:31:59;1.23;;;0.40;;
27333;SDS011;14817;57.104;-2.094;2022-12-29T02:34:52;0.45;;;0.30;;
27333;SDS011;14817;57.104;-2.094;2022-12-29T02:40:15;1.25;;;0.38;;
27333;SDS011;14817;57.104;-2.094;2022-12-29T02:42:51;0.45;;;0.30;;
27333;SDS011;14817;57.104;-2.094;2022-12-29T02:45:30;0.57;;;0.20;;
27333;SDS011;14817;57.104;-2.094;2022-12-29T02:48:04;0.45;;;0.35;;
27333;SDS011;14817;57.104;-2.094;2022-12-29T02:53:28;1.45;;;0.63;;
27333;SDS011;14817;57.104;-2.094;2022-12-29T02:56:17;2.03;;;0.30;;
27333;SDS011;14817;57.104;-2.094;2022-12-29T02:58:45;0.70;;;0.30;;
27333;SDS011;14817;57.104;-2.094;2022-12-29T03:09:59;0.32;;;0.22;;
27333;SDS011;14817;57.104;-2.094;2022-12-29T03:12:31;0.63;;;0.20;;
27333;SDS011;14817;57.104;-2.094;2022-12-29T03:15:26;0.30;;;0.30;;
27333;SDS011;14817;57.104;-2.094;2022-12-29T03:23:41;0.82;;;0.20;;
27333;SDS011;14817;57.104;-2.094;2022-12-29T03:26:15;0.25;;;0.20;;
27333;SDS011;14817;57.104;-2.094;2022-12-29T03:28:54;0.13;;;0.10;;
27333;SDS011;14817;57.104;-2.094;2022-12-29T03:31:27;0.20;;;0.20;;
27333;SDS011;14817;57.104;-2.094;2022-12-29T03:33:55;0.10;;;0.10;;
27333;SDS011;14817;57.104;-2.094;2022-12-29T03:36:26;1.25;;;0.10;;
27333;SDS011;14817;57.104;-2.094;2022-12-29T03:39:02;0.10;;;0.10;;
27333;SDS011;14817;57.104;-2.094;2022-12-29T03:41:38;0.30;;;0.20;;
27333;SDS011;14817;57.104;-2.094;2022-12-29T03:44:08;0.10;;;0.10;;
27333;SDS011;14817;57.104;-2.094;2022-12-29T03:46:36;1.17;;;0.10;;
27333;SDS011;14817;57.104;-2.094;2022-12-29T03:49:03;0.10;;;0.08;;
27333;SDS011;14817;57.104;-2.094;2022-12-29T03:51:30;0.52;;;0.20;;
27333;SDS011;14817;57.104;-2.094;2022-12-29T03:53:57;0.10;;;0.10;;
27333;SDS011;14817;57.104;-2.094;2022-12-29T03:56:23;0.10;;;0.10;;
27333;SDS011;14817;57.104;-2.094;2022-12-29T03:58:51;0.10;;;0.10;;
27333;SDS011;14817;57.104;-2.094;2022-12-29T04:01:26;0.10;;;0.10;;
27333;SDS011;14817;57.104;-2.094;2022-12-29T04:03:53;0.20;;;0.00;;
27333;SDS011;14817;57.104;-2.094;2022-12-29T04:06:20;0.10;;;0.05;;
27333;SDS011;14817;57.104;-2.094;2022-12-29T04:08:52;0.25;;;0.10;;
27333;SDS011;14817;57.104;-2.094;2022-12-29T04:11:20;0.00;;;0.00;;
27333;SDS011;14817;57.104;-2.094;2022-12-29T04:13:48;0.00;;;0.00;;
27333;SDS011;14817;57.104;-2.094;2022-12-29T04:16:20;0.10;;;0.10;;
27333;SDS011;14817;57.104;-2.094;2022-12-29T04:18:47;0.00;;;0.00;;
27333;SDS011;14817;57.104;-2.094;2022-12-29T04:21:14;0.20;;;0.00;;
27333;SDS011;14817;57.104;-2.094;2022-12-29T04:23:43;0.00;;;0.00;;
27333;SDS011;14817;57.104;-2.094;2022-12-29T04:26:11;0.00;;;0.00;;
27333;SDS011;14817;57.104;-2.094;2022-12-29T04:28:58;0.00;;;0.00;;
27333;SDS011;14817;57.104;-2.094;2022-12-29T04:31:42;0.00;;;0.00;;
27333;SDS011;14817;57.104;-2.094;2022-12-29T04:34:09;0.00;;;0.00;;
27333;SDS011;14817;57.104;-2.094;2022-12-29T04:36:37;0.10;;;0.10;;
27333;SDS011;14817;57.104;-2.094;2022-12-29T04:39:05;0.00;;;0.00;;
27333;SDS011;14817;57.104;-2.094;2022-12-29T04:41:34;0.00;;;0.00;;
27333;SDS011;14817;57.104;-2.094;2022-12-29T04:44:01;0.10;;;0.10;;
27333;SDS011;14817;57.104;-2.094;2022-12-29T04:46:31;0.00;;;0.00;;
27333;SDS011;14817;57.104;-2.094;2022-12-29T04:49:01;0.00;;;0.00;;
27333;SDS011;14817;57.104;-2.094;2022-12-29T04:51:57;0.20;;;0.08;;
27333;SDS011;14817;57.104;-2.094;2022-12-29T04:54:24;0.00;;;0.00;;
27333;SDS011;14817;57.104;-2.094;2022-12-29T04:57:03;0.03;;;0.00;;
27333;SDS011;14817;57.104;-2.094;2022-12-29T04:59:30;0.00;;;0.00;;
27333;SDS011;14817;57.104;-2.094;2022-12-29T05:01:58;0.00;;;0.00;;
27333;SDS011;14817;57.104;-2.094;2022-12-29T05:04:25;0.00;;;0.00;;
27333;SDS011;14817;57.104;-2.094;2022-12-29T05:06:52;0.00;;;0.00;;
27333;SDS011;14817;57.104;-2.094;2022-12-29T05:09:19;0.00;;;0.00;;
27333;SDS011;14817;57.104;-2.094;2022-12-29T05:11:46;0.32;;;0.00;;
27333;SDS011;14817;57.104;-2.094;2022-12-29T05:14:13;0.00;;;0.00;;
27333;SDS011;14817;57.104;-2.094;2022-12-29T05:16:40;0.00;;;0.00;;
27333;SDS011;14817;57.104;-2.094;2022-12-29T05:19:08;0.00;;;0.00;;
27333;SDS011;14817;57.104;-2.094;2022-12-29T05:21:35;0.38;;;0.10;;
27333;SDS011;14817;57.104;-2.094;2022-12-29T05:24:01;0.00;;;0.00;;
27333;SDS011;14817;57.104;-2.094;2022-12-29T05:26:28;0.10;;;0.00;;
27333;SDS011;14817;57.104;-2.094;2022-12-29T05:29:14;0.00;;;0.00;;
27333;SDS011;14817;57.104;-2.094;2022-12-29T05:31:41;0.00;;;0.00;;
27333;SDS011;14817;57.104;-2.094;2022-12-29T05:34:10;0.00;;;0.00;;
27333;SDS011;14817;57.104;-2.094;2022-12-29T05:36:39;0.70;;;0.10;;
27333;SDS011;14817;57.104;-2.094;2022-12-29T05:39:08;0.00;;;0.00;;
27333;SDS011;14817;57.104;-2.094;2022-12-29T05:41:35;0.00;;;0.00;;
27333;SDS011;14817;57.104;-2.094;2022-12-29T05:44:14;0.10;;;0.00;;
27333;SDS011;14817;57.104;-2.094;2022-12-29T05:47:09;0.00;;;0.00;;
27333;SDS011;14817;57.104;-2.094;2022-12-29T05:49:59;0.00;;;0.00;;
27333;SDS011;14817;57.104;-2.094;2022-12-29T05:52:45;0.00;;;0.00;;
27333;SDS011;14817;57.104;-2.094;2022-12-29T05:55:12;0.10;;;0.10;;
27333;SDS011;14817;57.104;-2.094;2022-12-29T05:57:41;0.05;;;0.05;;
27333;SDS011;14817;57.104;-2.094;2022-12-29T06:00:13;0.00;;;0.00;;
27333;SDS011;14817;57.104;-2.094;2022-12-29T06:02:43;0.00;;;0.00;;
27333;SDS011;14817;57.104;-2.094;2022-12-29T06:05:10;0.00;;;0.00;;
27333;SDS011;14817;57.104;-2.094;2022-12-29T06:07:38;0.00;;;0.00;;
27333;SDS011;14817;57.104;-2.094;2022-12-29T06:10:05;0.00;;;0.00;;
27333;SDS011;14817;57.104;-2.094;2022-12-29T06:12:40;0.00;;;0.00;;
27333;SDS011;14817;57.104;-2.094;2022-12-29T06:15:07;0.00;;;0.00;;
27333;SDS011;14817;57.104;-2.094;2022-12-29T06:17:37;0.00;;;0.00;;
27333;SDS011;14817;57.104;-2.094;2022-12-29T06:20:04;0.45;;;0.00;;
27333;SDS011;14817;57.104;-2.094;2022-12-29T06:22:32;0.00;;;0.00;;
27333;SDS011;14817;57.104;-2.094;2022-12-29T06:24:59;0.00;;;0.00;;
27333;SDS011;14817;57.104;-2.094;2022-12-29T06:27:32;0.00;;;0.00;;
27333;SDS011;14817;57.104;-2.094;2022-12-29T06:29:59;0.00;;;0.00;;
27333;SDS011;14817;57.104;-2.094;2022-12-29T06:32:26;0.00;;;0.00;;
27333;SDS011;14817;57.104;-2.094;2022-12-29T06:35:00;6.63;;;3.08;;
27333;SDS011;14817;57.104;-2.094;2022-12-29T06:37:28;0.80;;;0.30;;
27333;SDS011;14817;57.104;-2.094;2022-12-29T06:39:55;1.45;;;0.75;;
27333;SDS011;14817;57.104;-2.094;2022-12-29T06:42:27;0.90;;;0.28;;
27333;SDS011;14817;57.104;-2.094;2022-12-29T06:45:08;0.32;;;0.20;;
27333;SDS011;14817;57.104;-2.094;2022-12-29T06:47:36;0.20;;;0.05;;
27333;SDS011;14817;57.104;-2.094;2022-12-29T06:50:03;0.00;;;0.00;;
27333;SDS011;14817;57.104;-2.094;2022-12-29T06:52:30;0.00;;;0.00;;
27333;SDS011;14817;57.104;-2.094;2022-12-29T06:54:57;0.00;;;0.00;;
27333;SDS011;14817;57.104;-2.094;2022-12-29T06:57:25;0.00;;;0.00;;
27333;SDS011;14817;57.104;-2.094;2022-12-29T06:59:52;1.67;;;0.00;;
27333;SDS011;14817;57.104;-2.094;2022-12-29T07:02:22;0.10;;;0.10;;
27333;SDS011;14817;57.104;-2.094;2022-12-29T07:04:52;0.10;;;0.10;;
27333;SDS011;14817;57.104;-2.094;2022-12-29T07:07:19;0.00;;;0.00;;
27333;SDS011;14817;57.104;-2.094;2022-12-29T07:09:47;0.30;;;0.10;;
27333;SDS011;14817;57.104;-2.094;2022-12-29T07:12:14;0.10;;;0.03;;
27333;SDS011;14817;57.104;-2.094;2022-12-29T07:14:40;0.10;;;0.10;;
27333;SDS011;14817;57.104;-2.094;2022-12-29T07:17:09;3.10;;;0.10;;
27333;SDS011;14817;57.104;-2.094;2022-12-29T07:19:36;0.55;;;0.10;;
27333;SDS011;14817;57.104;-2.094;2022-12-29T07:22:02;0.20;;;0.10;;
27333;SDS011;14817;57.104;-2.094;2022-12-29T07:24:29;0.80;;;0.13;;
27333;SDS011;14817;57.104;-2.094;2022-12-29T07:26:56;0.03;;;0.03;;
27333;SDS011;14817;57.104;-2.094;2022-12-29T07:29:23;1.35;;;0.15;;
27333;SDS011;14817;57.104;-2.094;2022-12-29T07:31:50;0.03;;;0.03;;
27333;SDS011;14817;57.104;-2.094;2022-12-29T07:34:17;0.05;;;0.05;;
27333;SDS011;14817;57.104;-2.094;2022-12-29T07:36:44;0.10;;;0.10;;
27333;SDS011;14817;57.104;-2.094;2022-12-29T07:39:11;0.20;;;0.05;;
27333;SDS011;14817;57.104;-2.094;2022-12-29T07:41:37;2.45;;;0.93;;
27333;SDS011;14817;57.104;-2.094;2022-12-29T07:44:09;0.32;;;0.10;;
27333;SDS011;14817;57.104;-2.094;2022-12-29T07:47:00;0.10;;;0.10;;
27333;SDS011;14817;57.104;-2.094;2022-12-29T07:49:27;0.95;;;0.20;;
27333;SDS011;14817;57.104;-2.094;2022-12-29T07:51:54;2.75;;;0.28;;
27333;SDS011;14817;57.104;-2.094;2022-12-29T07:54:21;1.10;;;0.25;;
27333;SDS011;14817;57.104;-2.094;2022-12-29T07:56:49;0.40;;;0.22;;
27333;SDS011;14817;57.104;-2.094;2022-12-29T07:59:16;0.20;;;0.10;;
27333;SDS011;14817;57.104;-2.094;2022-12-29T08:01:43;0.10;;;0.10;;
27333;SDS011;14817;57.104;-2.094;2022-12-29T08:04:10;0.73;;;0.00;;
27333;SDS011;14817;57.104;-2.094;2022-12-29T08:06:37;0.40;;;0.10;;
27333;SDS011;14817;57.104;-2.094;2022-12-29T08:09:06;0.10;;;0.10;;
27333;SDS011;14817;57.104;-2.094;2022-12-29T08:11:43;0.10;;;0.10;;
27333;SDS011;14817;57.104;-2.094;2022-12-29T08:14:11;0.03;;;0.03;;
27333;SDS011;14817;57.104;-2.094;2022-12-29T08:16:37;0.28;;;0.25;;
27333;SDS011;14817;57.104;-2.094;2022-12-29T08:19:04;0.10;;;0.10;;
27333;SDS011;14817;57.104;-2.094;2022-12-29T08:21:31;0.55;;;0.10;;
27333;SDS011;14817;57.104;-2.094;2022-12-29T08:23:58;0.10;;;0.08;;
27333;SDS011;14817;57.104;-2.094;2022-12-29T08:26:25;0.77;;;0.20;;
27333;SDS011;14817;57.104;-2.094;2022-12-29T08:28:52;0.10;;;0.10;;
27333;SDS011;14817;57.104;-2.094;2022-12-29T08:31:20;1.85;;;0.05;;
27333;SDS011;14817;57.104;-2.094;2022-12-29T08:33:48;0.10;;;0.10;;
27333;SDS011;14817;57.104;-2.094;2022-12-29T08:36:15;0.28;;;0.20;;
27333;SDS011;14817;57.104;-2.094;2022-12-29T08:38:42;2.22;;;0.80;;
27333;SDS011;14817;57.104;-2.094;2022-12-29T08:41:08;0.85;;;0.10;;
27333;SDS011;14817;57.104;-2.094;2022-12-29T08:43:35;0.63;;;0.10;;
27333;SDS011;14817;57.104;-2.094;2022-12-29T08:46:02;0.22;;;0.10;;
27333;SDS011;14817;57.104;-2.094;2022-12-29T08:48:29;1.55;;;0.20;;
27333;SDS011;14817;57.104;-2.094;2022-12-29T08:50:56;0.65;;;0.17;;
27333;SDS011;14817;57.104;-2.094;2022-12-29T08:53:22;0.43;;;0.15;;
27333;SDS011;14817;57.104;-2.094;2022-12-29T08:55:55;0.10;;;0.10;;
27333;SDS011;14817;57.104;-2.094;2022-12-29T08:58:38;0.38;;;0.10;;
27333;SDS011;14817;57.104;-2.094;2022-12-29T09:01:05;0.10;;;0.10;;
27333;SDS011;14817;57.104;-2.094;2022-12-29T09:03:32;0.17;;;0.10;;
27333;SDS011;14817;57.104;-2.094;2022-12-29T09:06:19;0.40;;;0.17;;
27333;SDS011;14817;57.104;-2.094;2022-12-29T09:08:47;0.90;;;0.30;;
27333;SDS011;14817;57.104;-2.094;2022-12-29T09:13:46;0.70;;;0.20;;
27333;SDS011;14817;57.104;-2.094;2022-12-29T09:16:13;0.40;;;0.10;;
27333;SDS011;14817;57.104;-2.094;2022-12-29T09:18:41;0.70;;;0.28;;
27333;SDS011;14817;57.104;-2.094;2022-12-29T09:21:09;0.50;;;0.20;;
27333;SDS011;14817;57.104;-2.094;2022-12-29T09:23:37;2.20;;;0.20;;
27333;SDS011;14817;57.104;-2.094;2022-12-29T09:26:05;1.05;;;0.20;;
27333;SDS011;14817;57.104;-2.094;2022-12-29T09:28:33;0.77;;;0.20;;
27333;SDS011;14817;57.104;-2.094;2022-12-29T09:31:00;0.30;;;0.20;;
27333;SDS011;14817;57.104;-2.094;2022-12-29T09:33:27;0.88;;;0.17;;
27333;SDS011;14817;57.104;-2.094;2022-12-29T09:35:57;1.40;;;0.20;;
27333;SDS011;14817;57.104;-2.094;2022-12-29T09:38:25;0.30;;;0.20;;
27333;SDS011;14817;57.104;-2.094;2022-12-29T09:41:36;0.70;;;0.15;;
27333;SDS011;14817;57.104;-2.094;2022-12-29T09:44:04;1.00;;;0.40;;
27333;SDS011;14817;57.104;-2.094;2022-12-29T09:46:46;0.57;;;0.20;;
27333;SDS011;14817;57.104;-2.094;2022-12-29T09:49:19;0.65;;;0.17;;
27333;SDS011;14817;57.104;-2.094;2022-12-29T09:51:53;0.32;;;0.13;;
27333;SDS011;14817;57.104;-2.094;2022-12-29T09:57:15;0.47;;;0.10;;
27333;SDS011;14817;57.104;-2.094;2022-12-29T09:59:46;0.63;;;0.10;;
27333;SDS011;14817;57.104;-2.094;2022-12-29T10:10:55;0.60;;;0.20;;
27333;SDS011;14817;57.104;-2.094;2022-12-29T10:13:32;2.63;;;0.32;;
27333;SDS011;14817;57.104;-2.094;2022-12-29T10:16:10;0.63;;;0.20;;
27333;SDS011;14817;57.104;-2.094;2022-12-29T10:24:26;0.28;;;0.10;;
27333;SDS011;14817;57.104;-2.094;2022-12-29T10:26:55;0.52;;;0.20;;
27333;SDS011;14817;57.104;-2.094;2022-12-29T10:29:27;2.08;;;0.40;;
27333;SDS011;14817;57.104;-2.094;2022-12-29T10:32:00;0.73;;;0.13;;
27333;SDS011;14817;57.104;-2.094;2022-12-29T10:34:40;0.47;;;0.20;;
27333;SDS011;14817;57.104;-2.094;2022-12-29T10:37:12;0.20;;;0.10;;
27333;SDS011;14817;57.104;-2.094;2022-12-29T10:39:45;0.57;;;0.20;;
27333;SDS011;14817;57.104;-2.094;2022-12-29T10:42:20;0.60;;;0.30;;
27333;SDS011;14817;57.104;-2.094;2022-12-29T10:44:54;1.48;;;0.20;;
27333;SDS011;14817;57.104;-2.094;2022-12-29T10:47:27;0.40;;;0.30;;
27333;SDS011;14817;57.104;-2.094;2022-12-29T10:49:59;3.67;;;0.50;;
27333;SDS011;14817;57.104;-2.094;2022-12-29T10:52:26;0.73;;;0.20;;
27333;SDS011;14817;57.104;-2.094;2022-12-29T10:55:15;1.00;;;0.38;;
27333;SDS011;14817;57.104;-2.094;2022-12-29T10:57:49;1.30;;;0.30;;
27333;SDS011;14817;57.104;-2.094;2022-12-29T11:00:17;0.82;;;0.30;;
27333;SDS011;14817;57.104;-2.094;2022-12-29T11:08:22;0.55;;;0.20;;
27333;SDS011;14817;57.104;-2.094;2022-12-29T11:11:02;1.00;;;0.73;;
27333;SDS011;14817;57.104;-2.094;2022-12-29T11:13:49;0.20;;;0.10;;
27333;SDS011;14817;57.104;-2.094;2022-12-29T11:16:31;0.45;;;0.28;;
27333;SDS011;14817;57.104;-2.094;2022-12-29T11:24:03;2.05;;;0.20;;
27333;SDS011;14817;57.104;-2.094;2022-12-29T11:26:32;3.80;;;0.20;;
27333;SDS011;14817;57.104;-2.094;2022-12-29T11:31:55;1.65;;;0.20;;
27333;SDS011;14817;57.104;-2.094;2022-12-29T11:36:53;0.17;;;0.10;;
27333;SDS011;14817;57.104;-2.094;2022-12-29T11:42:13;0.10;;;0.10;;
27333;SDS011;14817;57.104;-2.094;2022-12-29T11:44:44;2.15;;;0.30;;
27333;SDS011;14817;57.104;-2.094;2022-12-29T11:47:24;1.23;;;0.20;;
27333;SDS011;14817;57.104;-2.094;2022-12-29T11:49:56;0.20;;;0.15;;
27333;SDS011;14817;57.104;-2.094;2022-12-29T11:52:28;0.52;;;0.10;;
27333;SDS011;14817;57.104;-2.094;2022-12-29T11:54:59;2.22;;;0.20;;
27333;SDS011;14817;57.104;-2.094;2022-12-29T11:57:27;0.57;;;0.20;;
27333;SDS011;14817;57.104;-2.094;2022-12-29T11:59:55;2.47;;;0.20;;
27333;SDS011;14817;57.104;-2.094;2022-12-29T12:02:35;2.55;;;0.22;;
27333;SDS011;14817;57.104;-2.094;2022-12-29T12:10:42;2.20;;;0.22;;
27333;SDS011;14817;57.104;-2.094;2022-12-29T12:16:09;0.87;;;0.20;;
27333;SDS011;14817;57.104;-2.094;2022-12-29T12:21:15;1.05;;;0.20;;
27333;SDS011;14817;57.104;-2.094;2022-12-29T12:24:13;0.13;;;0.10;;
27333;SDS011;14817;57.104;-2.094;2022-12-29T12:29:34;0.98;;;0.17;;
27333;SDS011;14817;57.104;-2.094;2022-12-29T12:32:15;0.10;;;0.10;;
27333;SDS011;14817;57.104;-2.094;2022-12-29T12:34:49;0.40;;;0.20;;
27333;SDS011;14817;57.104;-2.094;2022-12-29T12:40:30;0.30;;;0.30;;
27333;SDS011;14817;57.104;-2.094;2022-12-29T12:53:51;3.67;;;0.35;;
27333;SDS011;14817;57.104;-2.094;2022-12-29T13:07:44;0.30;;;0.20;;
27333;SDS011;14817;57.104;-2.094;2022-12-29T13:10:33;1.20;;;0.65;;
27333;SDS011;14817;57.104;-2.094;2022-12-29T13:16:01;2.30;;;0.30;;
27333;SDS011;14817;57.104;-2.094;2022-12-29T13:18:48;0.17;;;0.10;;
27333;SDS011;14817;57.104;-2.094;2022-12-29T13:21:59;0.65;;;0.40;;
27333;SDS011;14817;57.104;-2.094;2022-12-29T13:24:53;0.75;;;0.28;;
27333;SDS011;14817;57.104;-2.094;2022-12-29T13:30:20;0.38;;;0.20;;
27333;SDS011;14817;57.104;-2.094;2022-12-29T13:38:04;1.15;;;0.40;;
27333;SDS011;14817;57.104;-2.094;2022-12-29T13:40:34;0.65;;;0.28;;
27333;SDS011;14817;57.104;-2.094;2022-12-29T13:43:05;1.13;;;0.40;;
27333;SDS011;14817;57.104;-2.094;2022-12-29T13:45:33;0.93;;;0.30;;
27333;SDS011;14817;57.104;-2.094;2022-12-29T13:48:18;0.50;;;0.20;;
27333;SDS011;14817;57.104;-2.094;2022-12-29T13:50:53;0.90;;;0.20;;
27333;SDS011;14817;57.104;-2.094;2022-12-29T13:53:37;0.40;;;0.20;;
27333;SDS011;14817;57.104;-2.094;2022-12-29T13:58:54;1.75;;;0.32;;
27333;SDS011;14817;57.104;-2.094;2022-12-29T14:01:37;0.50;;;0.25;;
27333;SDS011;14817;57.104;-2.094;2022-12-29T14:04:10;0.10;;;0.10;;
27333;SDS011;14817;57.104;-2.094;2022-12-29T14:06:41;0.30;;;0.10;;
27333;SDS011;14817;57.104;-2.094;2022-12-29T14:12:28;0.20;;;0.20;;
27333;SDS011;14817;57.104;-2.094;2022-12-29T14:17:44;0.47;;;0.25;;
27333;SDS011;14817;57.104;-2.094;2022-12-29T14:20:26;3.80;;;1.50;;
27333;SDS011;14817;57.104;-2.094;2022-12-29T14:28:37;0.30;;;0.20;;
27333;SDS011;14817;57.104;-2.094;2022-12-29T14:47:38;4.20;;;0.35;;
27333;SDS011;14817;57.104;-2.094;2022-12-29T14:58:01;1.05;;;0.40;;
27333;SDS011;14817;57.104;-2.094;2022-12-29T15:00:39;1.05;;;0.22;;
27333;SDS011;14817;57.104;-2.094;2022-12-29T15:03:22;1.42;;;0.22;;
27333;SDS011;14817;57.104;-2.094;2022-12-29T15:08:24;2.25;;;0.30;;
27333;SDS011;14817;57.104;-2.094;2022-12-29T15:10:55;1.27;;;0.35;;
27333;SDS011;14817;57.104;-2.094;2022-12-29T15:13:33;0.75;;;0.30;;
27333;SDS011;14817;57.104;-2.094;2022-12-29T15:16:02;2.65;;;1.63;;
27333;SDS011;14817;57.104;-2.094;2022-12-29T15:18:31;2.25;;;0.93;;
27333;SDS011;14817;57.104;-2.094;2022-12-29T15:21:03;1.80;;;0.65;;
27333;SDS011;14817;57.104;-2.094;2022-12-29T15:23:32;0.93;;;0.50;;
27333;SDS011;14817;57.104;-2.094;2022-12-29T15:26:02;0.95;;;0.32;;
27333;SDS011;14817;57.104;-2.094;2022-12-29T15:28:51;0.40;;;0.22;;
27333;SDS011;14817;57.104;-2.094;2022-12-29T15:31:19;0.82;;;0.30;;
27333;SDS011;14817;57.104;-2.094;2022-12-29T15:34:02;0.60;;;0.30;;
27333;SDS011;14817;57.104;-2.094;2022-12-29T15:39:20;1.67;;;0.80;;
27333;SDS011;14817;57.104;-2.094;2022-12-29T15:41:54;3.22;;;1.27;;
27333;SDS011;14817;57.104;-2.094;2022-12-29T15:44:47;3.63;;;1.10;;
27333;SDS011;14817;57.104;-2.094;2022-12-29T15:47:27;1.67;;;0.70;;
27333;SDS011;14817;57.104;-2.094;2022-12-29T15:50:01;3.45;;;0.60;;
27333;SDS011;14817;57.104;-2.094;2022-12-29T15:52:32;2.72;;;0.45;;
27333;SDS011;14817;57.104;-2.094;2022-12-29T15:55:00;1.20;;;0.57;;
27333;SDS011;14817;57.104;-2.094;2022-12-29T15:57:29;2.05;;;0.68;;
27333;SDS011;14817;57.104;-2.094;2022-12-29T16:00:02;3.55;;;0.60;;
27333;SDS011;14817;57.104;-2.094;2022-12-29T16:02:47;1.73;;;0.40;;
27333;SDS011;14817;57.104;-2.094;2022-12-29T16:05:16;3.47;;;0.98;;
27333;SDS011;14817;57.104;-2.094;2022-12-29T16:07:57;1.25;;;0.35;;
27333;SDS011;14817;57.104;-2.094;2022-12-29T16:13:18;1.02;;;0.60;;
27333;SDS011;14817;57.104;-2.094;2022-12-29T16:15:55;2.28;;;0.57;;
27333;SDS011;14817;57.104;-2.094;2022-12-29T16:18:29;2.30;;;0.50;;
27333;SDS011;14817;57.104;-2.094;2022-12-29T16:21:01;2.30;;;0.60;;
27333;SDS011;14817;57.104;-2.094;2022-12-29T16:23:31;2.13;;;0.68;;
27333;SDS011;14817;57.104;-2.094;2022-12-29T16:25:59;3.75;;;1.10;;
27333;SDS011;14817;57.104;-2.094;2022-12-29T16:28:30;2.03;;;1.05;;
27333;SDS011;14817;57.104;-2.094;2022-12-29T16:31:03;3.72;;;2.13;;
27333;SDS011;14817;57.104;-2.094;2022-12-29T16:33:36;6.13;;;2.08;;
27333;SDS011;14817;57.104;-2.094;2022-12-29T16:36:24;3.85;;;2.05;;
27333;SDS011;14817;57.104;-2.094;2022-12-29T16:39:02;2.60;;;1.27;;
27333;SDS011;14817;57.104;-2.094;2022-12-29T16:41:52;2.83;;;0.40;;
27333;SDS011;14817;57.104;-2.094;2022-12-29T16:44:24;1.90;;;0.57;;
27333;SDS011;14817;57.104;-2.094;2022-12-29T16:46:57;0.80;;;0.40;;
27333;SDS011;14817;57.104;-2.094;2022-12-29T16:49:26;0.30;;;0.30;;
27333;SDS011;14817;57.104;-2.094;2022-12-29T16:51:54;0.80;;;0.30;;
27333;SDS011;14817;57.104;-2.094;2022-12-29T16:54:23;3.03;;;0.80;;
27333;SDS011;14817;57.104;-2.094;2022-12-29T16:56:53;0.90;;;0.45;;
27333;SDS011;14817;57.104;-2.094;2022-12-29T16:59:24;0.77;;;0.43;;
27333;SDS011;14817;57.104;-2.094;2022-12-29T17:01:57;1.40;;;0.30;;
27333;SDS011;14817;57.104;-2.094;2022-12-29T17:04:25;0.57;;;0.32;;
27333;SDS011;14817;57.104;-2.094;2022-12-29T17:06:52;1.65;;;0.35;;
27333;SDS011;14817;57.104;-2.094;2022-12-29T17:11:48;1.95;;;0.70;;
27333;SDS011;14817;57.104;-2.094;2022-12-29T17:17:13;1.63;;;0.55;;
27333;SDS011;14817;57.104;-2.094;2022-12-29T17:19:42;1.30;;;0.70;;
27333;SDS011;14817;57.104;-2.094;2022-12-29T17:22:18;1.15;;;0.40;;
27333;SDS011;14817;57.104;-2.094;2022-12-29T17:24:47;0.32;;;0.20;;
27333;SDS011;14817;57.104;-2.094;2022-12-29T17:29:50;0.43;;;0.30;;
27333;SDS011;14817;57.104;-2.094;2022-12-29T17:32:18;1.05;;;0.40;;
27333;SDS011;14817;57.104;-2.094;2022-12-29T17:34:45;0.50;;;0.38;;
27333;SDS011;14817;57.104;-2.094;2022-12-29T17:37:26;1.92;;;0.65;;
27333;SDS011;14817;57.104;-2.094;2022-12-29T17:39:55;0.77;;;0.30;;
27333;SDS011;14817;57.104;-2.094;2022-12-29T17:42:22;1.17;;;0.63;;
27333;SDS011;14817;57.104;-2.094;2022-12-29T17:44:49;1.00;;;0.43;;
27333;SDS011;14817;57.104;-2.094;2022-12-29T17:47:15;1.30;;;0.47;;
27333;SDS011;14817;57.104;-2.094;2022-12-29T17:49:42;3.83;;;0.80;;
27333;SDS011;14817;57.104;-2.094;2022-12-29T17:52:13;1.83;;;0.80;;
27333;SDS011;14817;57.104;-2.094;2022-12-29T17:54:42;3.63;;;0.85;;
27333;SDS011;14817;57.104;-2.094;2022-12-29T17:57:19;2.70;;;0.80;;